createdAt,value
2018-02-21T00:00:56.147Z,93.10
2018-02-21T00:03:23.702Z,93.30
2018-02-21T00:05:51.292Z,93.20
2018-02-21T00:08:19.725Z,93.50
2018-02-21T00:10:47.286Z,93.40
2018-02-21T00:13:14.862Z,93.40
2018-02-21T00:15:42.420Z,93.60
2018-02-21T00:18:10.003Z,93.70
2018-02-21T00:20:37.559Z,94.10
2018-02-21T00:23:05.134Z,94.10
2018-02-21T00:25:32.720Z,94.10
2018-02-21T00:28:00.284Z,94.00
2018-02-21T00:30:27.842Z,94.20
2018-02-21T00:32:55.424Z,93.70
2018-02-21T00:35:22.979Z,94.20
2018-02-21T00:37:50.574Z,94.10
2018-02-21T00:40:18.145Z,94.20
2018-02-21T00:42:45.686Z,94.30
2018-02-21T00:45:13.260Z,94.10
2018-02-21T00:47:40.810Z,94.20
2018-02-21T00:50:08.394Z,94.40
2018-02-21T00:52:35.938Z,94.00
2018-02-21T00:55:03.494Z,94.20
2018-02-21T00:57:31.069Z,94.30
2018-02-21T00:59:58.628Z,94.30
2018-02-21T01:02:26.213Z,94.60
2018-02-21T01:04:54.531Z,94.70
2018-02-21T01:07:22.085Z,94.70
2018-02-21T01:09:49.667Z,95.10
2018-02-21T01:12:17.239Z,95.10
2018-02-21T01:14:44.816Z,95.20
2018-02-21T01:17:12.383Z,95.30
2018-02-21T01:19:40.709Z,95.80
2018-02-21T01:22:08.291Z,95.80
2018-02-21T01:24:35.834Z,96.00
2018-02-21T01:27:03.419Z,96.10
2018-02-21T01:29:30.962Z,96.30
2018-02-21T01:31:58.533Z,96.30
2018-02-21T01:34:26.112Z,96.50
2018-02-21T01:36:53.662Z,96.70
2018-02-21T01:39:21.247Z,97.00
2018-02-21T01:41:49.570Z,97.40
2018-02-21T01:44:17.126Z,97.40
2018-02-21T01:46:44.696Z,97.30
2018-02-21T01:49:12.248Z,97.30
2018-02-21T01:51:39.829Z,97.30
2018-02-21T01:54:07.386Z,97.10
2018-02-21T01:56:45.059Z,96.10
2018-02-21T01:59:12.614Z,96.10
2018-02-21T02:01:40.162Z,96.20
2018-02-21T02:04:07.731Z,96.20
2018-02-21T02:06:35.291Z,96.00
2018-02-21T02:09:02.902Z,95.60
2018-02-21T02:11:30.487Z,95.90
2018-02-21T02:13:58.827Z,95.50
2018-02-21T02:16:26.407Z,95.50
2018-02-21T02:18:53.982Z,95.50
2018-02-21T02:21:22.310Z,95.80
2018-02-21T02:23:49.865Z,95.80
2018-02-21T02:26:17.470Z,96.00
2018-02-21T02:28:45.088Z,95.90
2018-02-21T02:31:12.634Z,95.80
2018-02-21T02:33:40.224Z,95.60
2018-02-21T02:36:07.793Z,96.30
2018-02-21T02:38:41.268Z,95.50
2018-02-21T02:41:08.824Z,95.30
2018-02-21T02:43:36.412Z,95.40
2018-02-21T02:46:04.011Z,95.40
2018-02-21T02:48:32.339Z,95.00
2018-02-21T02:51:05.823Z,95.10
2018-02-21T02:53:33.375Z,95.30
2018-02-21T02:56:00.945Z,95.70
2018-02-21T02:58:28.527Z,95.50
2018-02-21T03:00:56.078Z,95.60
2018-02-21T03:03:23.656Z,95.80
2018-02-21T03:05:51.239Z,96.00
2018-02-21T03:08:18.812Z,95.80
2018-02-21T03:10:47.153Z,95.50
2018-02-21T03:13:14.711Z,95.50
2018-02-21T03:15:42.271Z,95.50
2018-02-21T03:18:09.851Z,95.30
2018-02-21T03:20:37.405Z,95.20
2018-02-21T03:23:04.954Z,95.50
2018-02-21T03:25:32.545Z,95.10
2018-02-21T03:28:00.898Z,94.70
2018-02-21T03:30:28.471Z,94.70
2018-02-21T03:32:56.048Z,94.70
2018-02-21T03:35:24.370Z,94.60
2018-02-21T03:40:46.620Z,94.90
2018-02-21T03:43:14.207Z,94.90
2018-02-21T03:45:41.761Z,95.10
2018-02-21T03:48:09.409Z,95.00
2018-02-21T03:50:36.988Z,94.90
2018-02-21T03:53:04.550Z,94.80
2018-02-21T03:55:32.156Z,95.30
2018-02-21T03:58:00.478Z,95.40
2018-02-21T04:00:28.038Z,95.40
2018-02-21T04:02:56.934Z,94.20
2018-02-21T04:05:24.487Z,94.20
2018-02-21T04:07:52.063Z,94.30
2018-02-21T04:10:19.616Z,94.50
2018-02-21T04:12:47.204Z,94.60
2018-02-21T04:15:14.778Z,94.60
2018-02-21T04:17:43.100Z,94.50
2018-02-21T04:20:10.692Z,94.50
2018-02-21T04:22:38.249Z,94.30
2018-02-21T04:25:05.804Z,94.70
2018-02-21T04:27:33.381Z,94.80
2018-02-21T04:30:00.938Z,94.80
2018-02-21T04:32:28.526Z,94.90
2018-02-21T04:34:56.099Z,95.00
2018-02-21T04:37:23.658Z,95.00
2018-02-21T04:39:51.252Z,94.80
2018-02-21T04:42:18.797Z,94.90
2018-02-21T04:44:46.382Z,95.20
2018-02-21T04:47:13.930Z,95.50
2018-02-21T04:49:41.489Z,95.30
2018-02-21T04:52:09.063Z,95.20
2018-02-21T04:54:42.238Z,95.30
2018-02-21T04:57:14.387Z,95.50
2018-02-21T04:59:51.869Z,95.30
2018-02-21T05:02:19.452Z,95.00
2018-02-21T05:04:47.011Z,95.40
2018-02-21T05:07:14.605Z,95.20
2018-02-21T05:09:42.159Z,95.30
2018-02-21T05:12:09.714Z,95.50
2018-02-21T05:14:37.287Z,95.70
2018-02-21T05:17:04.875Z,95.60
2018-02-21T05:19:33.243Z,95.50
2018-02-21T05:22:00.805Z,95.50
2018-02-21T05:24:28.363Z,95.10
2018-02-21T05:26:55.975Z,95.00
2018-02-21T05:29:23.550Z,94.90
2018-02-21T05:31:51.148Z,94.60
2018-02-21T05:34:19.515Z,95.10
2018-02-21T05:36:47.080Z,95.10
2018-02-21T05:39:14.658Z,95.00
2018-02-21T05:41:42.987Z,94.70
2018-02-21T05:44:10.575Z,94.70
2018-02-21T05:46:38.135Z,94.80
2018-02-21T05:49:05.702Z,94.90
2018-02-21T05:51:33.291Z,94.70
2018-02-21T05:54:00.856Z,94.70
2018-02-21T05:56:28.442Z,94.70
2018-02-21T05:58:56.004Z,94.70
2018-02-21T06:01:23.565Z,94.90
2018-02-21T06:03:51.153Z,94.80
2018-02-21T06:06:18.707Z,94.90
2018-02-21T06:08:46.294Z,94.70
2018-02-21T06:11:13.892Z,94.60
2018-02-21T06:13:42.182Z,94.50
2018-02-21T06:16:09.769Z,94.50
2018-02-21T06:18:38.121Z,94.80
2018-02-21T06:21:05.793Z,94.80
2018-02-21T06:23:33.519Z,94.60
2018-02-21T06:26:01.226Z,94.40
2018-02-21T06:28:28.910Z,95.00
2018-02-21T06:30:56.550Z,94.40
2018-02-21T06:33:24.270Z,94.20
2018-02-21T06:35:51.827Z,94.30
2018-02-21T06:38:20.147Z,94.60
2018-02-21T06:40:47.755Z,94.60
2018-02-21T06:43:16.077Z,94.20
2018-02-21T06:45:43.714Z,94.20
2018-02-21T06:48:11.346Z,94.00
2018-02-21T06:50:38.919Z,93.80
2018-02-21T06:53:07.347Z,94.70
2018-02-21T06:55:42.707Z,94.40
2018-02-21T06:58:10.335Z,94.20
2018-02-21T07:00:37.945Z,94.30
2018-02-21T07:03:05.570Z,94.40
2018-02-21T07:05:33.200Z,94.20
2018-02-21T07:08:01.550Z,94.50
2018-02-21T07:10:29.146Z,94.50
2018-02-21T07:12:56.734Z,94.50
2018-02-21T07:15:24.397Z,94.60
2018-02-21T07:17:52.703Z,94.20
2018-02-21T07:20:20.273Z,94.20
2018-02-21T07:22:47.860Z,93.90
2018-02-21T07:25:16.186Z,93.60
2018-02-21T07:27:43.786Z,93.60
2018-02-21T07:30:12.198Z,93.40
2018-02-21T07:32:39.774Z,93.40
2018-02-21T07:35:07.370Z,93.10
2018-02-21T07:37:34.924Z,92.80
2018-02-21T07:40:02.487Z,93.00
2018-02-21T07:42:30.072Z,92.90
2018-02-21T07:44:58.389Z,92.30
2018-02-21T07:47:25.966Z,92.20
2018-02-21T07:49:53.561Z,92.20
2018-02-21T07:52:21.906Z,92.50
2018-02-21T07:54:49.491Z,92.50
2018-02-21T07:57:17.055Z,92.00
2018-02-21T07:59:44.654Z,92.30
2018-02-21T08:02:12.218Z,91.90
2018-02-21T08:04:39.815Z,92.20
2018-02-21T08:07:08.185Z,91.40
2018-02-21T08:09:35.740Z,91.30
2018-02-21T08:12:03.323Z,91.70
2018-02-21T08:14:30.891Z,91.40
2018-02-21T08:16:58.456Z,91.70
2018-02-21T08:19:26.050Z,91.70
2018-02-21T08:21:53.607Z,91.80
2018-02-21T08:24:21.189Z,91.80
2018-02-21T08:26:48.774Z,92.20
2018-02-21T08:29:16.423Z,91.30
2018-02-21T08:31:43.997Z,91.50
2018-02-21T08:34:11.589Z,90.80
2018-02-21T08:36:39.252Z,91.00
2018-02-21T08:39:06.791Z,91.10
2018-02-21T08:41:34.343Z,91.10
2018-02-21T08:44:01.926Z,91.60
2018-02-21T08:46:29.485Z,91.50
2018-02-21T08:48:57.066Z,91.50
2018-02-21T08:51:25.415Z,91.80
2018-02-21T08:53:52.983Z,91.80
2018-02-21T08:56:20.564Z,91.90
2018-02-21T08:58:48.939Z,91.50
2018-02-21T09:01:16.535Z,91.50
2018-02-21T09:03:44.104Z,90.80
2018-02-21T09:06:11.652Z,90.50
2018-02-21T09:08:39.231Z,91.00
2018-02-21T09:11:06.783Z,90.00
2018-02-21T09:13:34.430Z,89.40
2018-02-21T09:16:01.982Z,90.30
2018-02-21T09:18:29.534Z,90.70
2018-02-21T09:20:57.950Z,87.50
2018-02-21T09:23:25.508Z,87.50
2018-02-21T09:25:53.095Z,87.30
2018-02-21T09:28:20.640Z,87.80
2018-02-21T09:30:48.225Z,87.70
2018-02-21T09:33:15.799Z,89.60
2018-02-21T09:35:43.346Z,88.80
2018-02-21T09:38:10.914Z,85.20
2018-02-21T09:40:38.456Z,83.70
2018-02-21T09:43:05.997Z,83.90
2018-02-21T09:45:33.572Z,82.40
2018-02-21T09:48:01.116Z,82.90
2018-02-21T09:50:28.704Z,81.50
2018-02-21T09:52:56.239Z,83.40
2018-02-21T09:55:23.773Z,82.40
2018-02-21T09:57:51.350Z,82.20
2018-02-21T10:00:18.893Z,82.50
2018-02-21T10:02:46.462Z,81.40
2018-02-21T10:05:14.012Z,81.90
2018-02-21T10:07:41.565Z,82.70
2018-02-21T10:10:09.141Z,83.50
2018-02-21T10:12:36.703Z,82.60
2018-02-21T10:15:04.294Z,83.00
2018-02-21T10:17:31.845Z,83.10
2018-02-21T10:20:00.161Z,84.50
2018-02-21T10:22:27.736Z,84.50
2018-02-21T10:24:56.061Z,82.80
2018-02-21T10:27:23.637Z,82.70
2018-02-21T10:29:51.195Z,82.90
2018-02-21T10:32:18.767Z,80.80
2018-02-21T10:34:46.346Z,82.10
2018-02-21T10:37:14.668Z,84.10
2018-02-21T10:39:42.243Z,84.00
2018-02-21T10:42:09.778Z,86.40
2018-02-21T10:44:37.375Z,82.90
2018-02-21T10:47:04.946Z,77.50
2018-02-21T10:49:32.535Z,79.60
2018-02-21T10:52:00.891Z,81.90
2018-02-21T10:54:28.446Z,81.90
2018-02-21T10:56:55.996Z,79.90
2018-02-21T10:59:24.338Z,79.60
2018-02-21T11:01:51.909Z,79.50
2018-02-21T11:04:20.254Z,81.80
2018-02-21T11:06:48.835Z,80.50
2018-02-21T11:09:17.155Z,82.70
2018-02-21T11:11:44.719Z,82.80
2018-02-21T11:14:12.337Z,80.50
2018-02-21T11:16:40.687Z,81.60
2018-02-21T11:19:08.251Z,81.60
2018-02-21T11:21:35.796Z,82.80
2018-02-21T11:24:03.400Z,83.20
2018-02-21T11:26:30.951Z,82.70
2018-02-21T11:28:59.292Z,80.90
2018-02-21T11:31:26.856Z,80.80
2018-02-21T11:33:54.431Z,80.40
2018-02-21T11:36:22.014Z,79.10
2018-02-21T11:38:57.070Z,80.00
2018-02-21T11:41:24.636Z,80.00
2018-02-21T11:43:52.191Z,80.30
2018-02-21T11:46:19.740Z,79.90
2018-02-21T11:48:48.141Z,80.10
2018-02-21T11:51:15.692Z,80.00
2018-02-21T11:53:43.270Z,78.70
2018-02-21T11:56:10.811Z,80.50
2018-02-21T11:58:38.372Z,78.70
2018-02-21T12:01:05.950Z,80.50
2018-02-21T12:03:35.472Z,82.10
2018-02-21T12:06:03.084Z,78.50
2018-02-21T12:08:30.631Z,76.70
2018-02-21T12:10:58.944Z,75.60
2018-02-21T12:13:26.538Z,75.50
2018-02-21T12:15:54.082Z,75.60
2018-02-21T12:18:21.651Z,75.40
2018-02-21T12:20:49.328Z,74.10
2018-02-21T12:23:16.867Z,74.20
2018-02-21T12:25:44.499Z,75.40
2018-02-21T12:28:12.815Z,76.60
2018-02-21T12:30:40.378Z,76.60
2018-02-21T12:33:07.919Z,75.70
2018-02-21T12:35:35.458Z,76.20
2018-02-21T12:38:14.276Z,76.40
2018-02-21T12:43:43.546Z,73.90
2018-02-21T12:46:11.092Z,72.90
2018-02-21T12:48:38.692Z,73.50
2018-02-21T12:51:06.234Z,74.90
2018-02-21T12:53:33.789Z,72.80
2018-02-21T12:56:01.915Z,72.00
2018-02-21T12:58:30.230Z,70.40
2018-02-21T13:00:57.793Z,70.40
2018-02-21T13:03:25.345Z,68.70
2018-02-21T13:05:52.943Z,67.30
2018-02-21T13:08:20.512Z,66.40
2018-02-21T13:10:48.834Z,77.30
2018-02-21T13:13:16.447Z,77.40
2018-02-21T13:15:44.782Z,69.30
2018-02-21T13:18:12.347Z,69.30
2018-02-21T13:20:39.917Z,70.70
2018-02-21T13:23:07.466Z,70.60
2018-02-21T13:25:35.040Z,70.80
2018-02-21T13:28:03.467Z,71.10
2018-02-21T13:30:31.028Z,71.80
2018-02-21T13:32:59.179Z,72.80
2018-02-21T13:35:27.547Z,71.00
2018-02-21T13:37:55.122Z,70.90
2018-02-21T13:40:23.460Z,72.50
2018-02-21T13:42:59.247Z,72.50
2018-02-21T13:45:26.848Z,71.00
2018-02-21T13:47:56.150Z,71.20
2018-02-21T13:50:31.490Z,71.20
2018-02-21T13:52:59.039Z,70.20
2018-02-21T13:55:28.183Z,71.00
2018-02-21T13:58:16.747Z,71.90
2018-02-21T14:00:58.987Z,72.20
2018-02-21T14:03:27.303Z,71.10
2018-02-21T14:05:54.855Z,71.10
2018-02-21T14:08:35.059Z,70.90
2018-02-21T14:11:05.449Z,71.80
2018-02-21T14:13:33.030Z,69.00
2018-02-21T14:16:14.104Z,70.70
2018-02-21T14:18:41.694Z,69.30
2018-02-21T14:21:10.020Z,70.20
2018-02-21T14:23:37.575Z,70.20
2018-02-21T14:26:05.143Z,69.90
2018-02-21T14:28:32.695Z,68.30
2018-02-21T14:31:00.267Z,68.50
2018-02-21T14:33:27.827Z,68.80
2018-02-21T14:35:56.148Z,68.90
2018-02-21T14:38:28.800Z,69.20
2018-02-21T14:40:56.355Z,69.10
2018-02-21T14:43:29.227Z,69.60
2018-02-21T14:45:57.795Z,69.40
2018-02-21T14:48:25.332Z,69.20
2018-02-21T14:51:04.166Z,68.80
2018-02-21T14:53:31.735Z,69.50
2018-02-21T14:56:02.778Z,69.50
2018-02-21T14:58:30.334Z,69.10
2018-02-21T15:01:05.780Z,68.90
2018-02-21T15:03:33.330Z,69.30
2018-02-21T15:06:00.942Z,70.40
2018-02-21T15:08:28.496Z,69.90
2018-02-21T15:10:56.060Z,68.80
2018-02-21T15:13:23.641Z,69.00
2018-02-21T15:15:51.179Z,69.30
2018-02-21T15:18:18.757Z,68.10
2018-02-21T15:23:51.894Z,68.40
2018-02-21T15:26:20.210Z,68.30
2018-02-21T15:28:47.812Z,68.30
2018-02-21T15:31:16.078Z,68.70
2018-02-21T15:33:43.640Z,68.20
2018-02-21T15:36:11.209Z,68.30
2018-02-21T15:38:38.815Z,69.10
2018-02-21T15:41:06.403Z,68.80
2018-02-21T15:43:33.983Z,69.70
2018-02-21T15:46:01.551Z,70.70
2018-02-21T15:48:29.131Z,69.10
2018-02-21T15:50:57.450Z,70.90
2018-02-21T15:53:25.028Z,70.90
2018-02-21T15:55:52.582Z,71.60
2018-02-21T15:58:20.152Z,72.00
2018-02-21T16:00:59.779Z,71.10
2018-02-21T16:03:27.369Z,70.80
2018-02-21T16:05:54.927Z,70.00
2018-02-21T16:08:44.183Z,71.80
2018-02-21T16:11:18.454Z,71.80
2018-02-21T16:13:46.044Z,70.10
2018-02-21T16:16:13.613Z,70.30
2018-02-21T16:18:41.166Z,70.90
2018-02-21T16:21:08.743Z,70.90
2018-02-21T16:23:36.293Z,71.30
2018-02-21T16:26:03.867Z,72.10
2018-02-21T16:28:31.444Z,73.00
2018-02-21T16:30:59.017Z,72.70
2018-02-21T16:33:27.347Z,75.10
2018-02-21T16:35:54.912Z,75.00
2018-02-21T16:38:22.479Z,75.30
2018-02-21T16:40:50.785Z,76.90
2018-02-21T16:43:18.355Z,76.90
2018-02-21T16:48:41.592Z,76.20
2018-02-21T16:51:14.951Z,78.10
2018-02-21T16:53:42.562Z,76.90
2018-02-21T16:56:10.126Z,78.50
2018-02-21T16:58:37.694Z,78.60
2018-02-21T17:01:06.275Z,79.20
2018-02-21T17:03:33.821Z,79.40
2018-02-21T17:06:04.566Z,79.40
2018-02-21T17:08:32.107Z,79.80
2018-02-21T17:19:30.741Z,84.70
2018-02-21T17:22:12.670Z,82.70
2018-02-21T17:24:40.339Z,84.50
2018-02-21T17:27:07.882Z,83.10
2018-02-21T17:29:35.426Z,83.60
2018-02-21T17:32:03.037Z,83.40
2018-02-21T17:34:31.359Z,85.30
2018-02-21T17:36:58.942Z,85.30
2018-02-21T17:39:26.490Z,85.90
2018-02-21T17:41:54.034Z,86.80
2018-02-21T17:44:21.616Z,87.10
2018-02-21T17:46:49.268Z,87.00
2018-02-21T17:49:16.861Z,86.90
2018-02-21T17:51:44.416Z,86.80
2018-02-21T17:54:12.009Z,87.10
2018-02-21T17:56:40.356Z,84.10
2018-02-21T17:59:07.955Z,84.10
2018-02-21T18:01:43.471Z,87.50
2018-02-21T18:04:14.407Z,87.50
2018-02-21T18:06:42.050Z,88.70
2018-02-21T18:09:10.621Z,90.10
2018-02-21T18:11:41.350Z,90.10
2018-02-21T18:14:08.959Z,90.10
2018-02-21T18:16:36.505Z,90.30
2018-02-21T18:19:04.066Z,90.40
2018-02-21T18:21:38.940Z,90.80
2018-02-21T18:24:07.262Z,89.60
2018-02-21T18:29:31.136Z,90.20
2018-02-21T18:31:58.755Z,90.00
2018-02-21T18:34:26.579Z,89.80
2018-02-21T18:36:54.404Z,88.70
2018-02-21T18:39:21.998Z,87.90
2018-02-21T18:41:49.574Z,86.90
2018-02-21T18:44:17.782Z,86.10
2018-02-21T18:46:46.172Z,85.80
2018-02-21T18:49:14.493Z,86.00
2018-02-21T18:51:42.080Z,85.90
2018-02-21T18:54:19.730Z,85.20
2018-02-21T18:56:47.339Z,86.10
2018-02-21T18:59:14.890Z,86.70
2018-02-21T19:01:42.478Z,86.90
2018-02-21T19:04:12.040Z,87.30
2018-02-21T19:06:39.608Z,87.40
2018-02-21T19:09:07.236Z,88.70
2018-02-21T19:11:34.857Z,89.90
2018-02-21T19:14:02.434Z,90.20
2018-02-21T19:16:29.984Z,90.70
2018-02-21T19:18:57.567Z,90.70
2018-02-21T19:21:25.887Z,89.90
2018-02-21T19:24:11.038Z,89.90
2018-02-21T19:26:38.603Z,90.10
2018-02-21T19:29:06.195Z,87.10
2018-02-21T19:31:34.770Z,82.70
2018-02-21T19:34:02.343Z,80.60
2018-02-21T19:36:29.946Z,79.10
2018-02-21T19:38:58.285Z,77.20
2018-02-21T19:41:26.850Z,77.10
2018-02-21T19:43:54.473Z,78.00
2018-02-21T19:46:22.028Z,77.60
2018-02-21T19:48:50.386Z,76.50
2018-02-21T19:51:18.742Z,77.30
2018-02-21T19:53:49.886Z,77.20
2018-02-21T19:56:17.471Z,77.70
2018-02-21T19:58:45.041Z,78.20
2018-02-21T20:01:13.398Z,78.10
2018-02-21T20:03:40.974Z,78.10
2018-02-21T20:06:09.360Z,78.10
2018-02-21T20:08:37.691Z,78.30
2018-02-21T20:11:05.256Z,78.30
2018-02-21T20:13:32.852Z,78.90
2018-02-21T20:16:00.407Z,78.60
2018-02-21T20:18:28.004Z,79.10
2018-02-21T20:20:55.568Z,79.40
2018-02-21T20:23:23.137Z,79.30
2018-02-21T20:25:50.715Z,79.40
2018-02-21T20:28:18.265Z,79.40
2018-02-21T20:30:45.843Z,79.70
2018-02-21T20:33:13.420Z,79.30
2018-02-21T20:35:41.007Z,79.40
2018-02-21T20:38:09.361Z,79.40
2018-02-21T20:40:36.915Z,79.50
2018-02-21T20:43:05.275Z,80.30
2018-02-21T20:45:32.835Z,80.40
2018-02-21T20:48:00.416Z,80.40
2018-02-21T20:50:27.998Z,81.00
2018-02-21T20:52:56.329Z,80.60
2018-02-21T20:55:23.919Z,80.60
2018-02-21T20:57:51.483Z,81.30
2018-02-21T21:00:19.038Z,80.60
2018-02-21T21:02:46.623Z,81.60
2018-02-21T21:05:14.198Z,81.10
2018-02-21T21:07:42.564Z,82.10
2018-02-21T21:10:10.903Z,82.10
2018-02-21T21:12:38.464Z,82.10
2018-02-21T21:15:06.827Z,81.90
2018-02-21T21:17:34.394Z,81.90
2018-02-21T21:20:01.974Z,82.00
2018-02-21T21:22:29.548Z,82.00
2018-02-21T21:24:57.098Z,81.90
2018-02-21T21:27:24.672Z,82.60
2018-02-21T21:29:52.226Z,82.70
2018-02-21T21:32:20.824Z,82.80
2018-02-21T21:34:49.152Z,84.00
2018-02-21T21:37:16.715Z,83.90
2018-02-21T21:39:44.296Z,83.60
2018-02-21T21:42:11.877Z,83.60
2018-02-21T21:44:39.460Z,83.80
2018-02-21T21:47:07.811Z,84.80
2018-02-21T21:49:38.730Z,84.80
2018-02-21T21:52:06.330Z,84.70
2018-02-21T21:54:34.655Z,84.70
2018-02-21T21:57:02.232Z,84.70
2018-02-21T21:59:35.785Z,85.50
2018-02-21T22:02:03.379Z,85.30
2018-02-21T22:04:30.973Z,85.90
2018-02-21T22:06:58.522Z,86.10
2018-02-21T22:09:26.098Z,86.50
2018-02-21T22:11:53.662Z,86.50
2018-02-21T22:14:21.242Z,87.20
2018-02-21T22:16:49.582Z,87.00
2018-02-21T22:19:17.144Z,86.90
2018-02-21T22:21:44.725Z,86.40
2018-02-21T22:24:12.278Z,86.50
2018-02-21T22:26:39.875Z,86.80
2018-02-21T22:29:07.435Z,87.00
2018-02-21T22:31:35.003Z,87.30
2018-02-21T22:34:02.582Z,87.70
2018-02-21T22:36:30.126Z,88.30
2018-02-21T22:41:52.709Z,88.50
2018-02-21T22:44:20.286Z,88.90
2018-02-21T22:46:47.851Z,89.00
2018-02-21T22:49:15.426Z,88.80
2018-02-21T22:51:43.006Z,89.40
2018-02-21T22:54:11.330Z,89.20
2018-02-21T22:56:38.904Z,89.20
2018-02-21T22:59:06.450Z,88.90
2018-02-21T23:01:34.023Z,89.00
2018-02-21T23:04:01.600Z,89.10
2018-02-21T23:06:29.160Z,89.30
2018-02-21T23:08:58.780Z,89.20
2018-02-21T23:11:26.339Z,89.20
2018-02-21T23:13:54.666Z,90.00
2018-02-21T23:16:22.243Z,89.80
2018-02-21T23:18:50.560Z,89.40
2018-02-21T23:21:18.126Z,89.40
2018-02-21T23:23:46.438Z,88.70
2018-02-21T23:26:35.548Z,88.60
2018-02-21T23:29:03.118Z,89.00
2018-02-21T23:31:30.670Z,88.90
2018-02-21T23:33:58.248Z,89.60
2018-02-21T23:36:26.575Z,88.90
2018-02-21T23:38:54.152Z,88.90
2018-02-21T23:41:23.748Z,88.70
2018-02-21T23:43:51.302Z,88.50
2018-02-21T23:46:18.872Z,88.90
2018-02-21T23:48:46.447Z,88.80
2018-02-21T23:51:14.800Z,88.60
2018-02-21T23:53:42.371Z,88.60
2018-02-21T23:56:12.678Z,89.00
2018-02-21T23:58:40.277Z,88.90
